Creswell, North Carolina
Current Conditions -  °F | °C
As of 9:55 PM on Friday 19 Dec 2014 (Local Time) from KEDE Reporting Station
NA  
Wind Chill: 34°   Ceiling: NA
Heat Index: 34°   Visibility: 10mi
Dew Point: 31°   Wind: 3mph
Humidity: 89%   Direction: 60°ENE
Pressure: 30.23"   Gusts: NA
Location:  35.87°N, 76.39°W
Report Text: KEDE 200255Z AUTO 06003KT 10SM 01/M01 A3023 RMK AO2 T00091008
Loading
Personal Weather Stations






























Interactive Weather Map New forecast layout! Learn more

10-Day Weather Forecast

Advertisements
Track Severe Weather on mobile